createdAt,value
2023-04-06T10:57:57.065Z,16128.00
2023-04-06T10:58:57.123Z,16480.00
2023-04-06T10:59:57.050Z,16608.00
2023-04-06T11:00:57.054Z,16768.00
2023-04-06T11:01:57.105Z,16800.00
2023-04-06T11:02:57.043Z,16672.00
2023-04-06T11:03:57.016Z,16576.00
2023-04-06T11:04:56.947Z,16260.00
2023-04-06T11:05:56.965Z,16176.00
2023-04-06T11:06:56.959Z,16092.00
2023-04-06T11:07:56.915Z,16052.00
2023-04-06T11:08:56.877Z,15956.00
2023-04-06T11:10:11.623Z,15880.00
2023-04-06T11:10:56.848Z,15796.00
2023-04-06T11:11:56.875Z,15700.00
2023-04-06T11:12:56.937Z,15560.00
2023-04-06T11:13:56.801Z,15440.00
2023-04-06T11:14:56.813Z,15344.00
2023-04-06T11:15:56.777Z,15216.00
2023-04-06T11:16:56.800Z,15148.00
2023-04-06T11:17:56.887Z,15160.00
2023-04-06T11:18:56.722Z,15220.00
2023-04-06T11:19:56.750Z,15372.00
2023-04-06T11:20:56.695Z,15544.00
2023-04-06T11:21:58.116Z,15788.00
2023-04-06T11:22:56.682Z,16028.00
2023-04-06T11:23:56.674Z,16164.00
2023-04-06T11:24:56.665Z,16204.00
2023-04-06T11:25:56.658Z,16228.00
2023-04-06T11:26:56.665Z,16216.00
2023-04-06T11:27:56.601Z,16200.00
2023-04-06T11:28:56.597Z,16416.00
2023-04-06T11:29:56.600Z,16512.00
2023-04-06T11:30:56.591Z,16576.00
2023-04-06T11:31:56.538Z,16576.00
2023-04-06T11:32:56.546Z,16608.00
2023-04-06T11:33:56.566Z,16736.00
2023-04-06T11:34:56.561Z,16832.00
2023-04-06T11:35:56.487Z,16864.00
2023-04-06T11:36:56.461Z,16864.00
2023-04-06T11:37:57.535Z,16800.00
2023-04-06T11:38:56.433Z,16576.00
2023-04-06T11:39:56.455Z,16384.00
2023-04-06T11:40:56.421Z,16384.00
2023-04-06T11:41:56.416Z,16640.00
2023-04-06T11:42:56.407Z,16992.00
2023-04-06T11:43:56.366Z,17248.00
2023-04-06T11:44:56.375Z,17440.00
2023-04-06T11:45:56.417Z,17664.00
2023-04-06T11:46:56.337Z,17824.00
2023-04-06T11:47:56.384Z,17888.00
2023-04-06T11:48:56.350Z,17856.00
2023-04-06T11:50:05.761Z,17728.00
2023-04-06T11:50:56.262Z,17728.00
2023-04-06T11:51:56.272Z,17760.00
2023-04-06T11:52:56.249Z,17760.00
2023-04-06T11:53:56.228Z,17632.00
2023-04-06T11:54:56.213Z,17504.00
2023-04-06T11:55:56.193Z,17440.00
2023-04-06T11:56:56.174Z,17408.00
2023-04-06T11:57:56.187Z,17504.00
2023-04-06T11:58:56.162Z,17568.00
2023-04-06T11:59:56.165Z,17664.00
2023-04-06T12:00:56.134Z,17760.00
2023-04-06T12:01:56.143Z,17920.00
2023-04-06T12:02:56.193Z,18080.00
2023-04-06T12:03:56.238Z,18368.00
2023-04-06T12:04:56.070Z,18656.00
2023-04-06T12:05:56.734Z,18944.00
2023-04-06T12:06:56.046Z,19264.00
2023-04-06T12:07:56.280Z,19712.00
2023-04-06T12:08:56.025Z,20160.00
2023-04-06T12:09:56.020Z,20608.00
2023-04-06T12:10:55.983Z,21120.00
2023-04-06T12:11:55.978Z,21696.00
2023-04-06T12:12:55.932Z,21920.00
2023-04-06T12:13:55.947Z,21984.00
2023-04-06T12:14:55.936Z,22016.00
2023-04-06T12:15:55.972Z,22272.00
2023-04-06T12:16:55.905Z,22592.00
2023-04-06T12:17:55.927Z,22400.00
2023-04-06T12:18:55.866Z,22528.00
2023-04-06T12:19:57.171Z,23072.00
2023-04-06T12:20:55.838Z,23488.00
2023-04-06T12:21:55.854Z,23936.00
2023-04-06T12:22:55.811Z,24224.00
2023-04-06T12:23:55.812Z,23808.00
2023-04-06T12:24:55.776Z,23328.00
2023-04-06T12:25:55.834Z,23008.00
2023-04-06T12:27:06.923Z,23072.00
2023-04-06T12:27:55.731Z,23456.00
2023-04-06T12:28:55.705Z,24672.00
2023-04-06T12:29:55.710Z,25664.00
2023-04-06T12:30:55.706Z,25824.00
2023-04-06T12:31:55.795Z,27136.00
2023-04-06T12:32:55.717Z,28128.00
2023-04-06T12:33:55.665Z,28608.00
2023-04-06T12:34:55.634Z,28992.00
2023-04-06T12:35:55.641Z,26688.00
2023-04-06T12:36:55.691Z,23904.00
2023-04-06T12:37:55.605Z,22688.00
2023-04-06T12:38:55.593Z,22784.00
2023-04-06T12:39:55.592Z,22528.00
2023-04-06T12:40:55.559Z,22208.00
2023-04-06T12:41:55.529Z,21696.00
2023-04-06T12:42:55.533Z,21024.00
2023-04-06T12:43:55.503Z,20544.00
2023-04-06T12:44:55.506Z,20768.00
2023-04-06T12:45:55.476Z,21280.00
2023-04-06T12:46:55.504Z,21728.00
2023-04-06T12:47:55.499Z,22240.00
2023-04-06T12:48:55.444Z,22944.00
2023-04-06T12:49:55.454Z,23072.00
2023-04-06T12:50:55.420Z,23136.00
2023-04-06T12:51:55.413Z,22848.00
2023-04-06T12:52:55.376Z,21984.00
2023-04-06T12:53:55.387Z,20992.00
2023-04-06T12:54:55.357Z,19872.00
2023-04-06T12:55:55.334Z,19392.00
2023-04-06T12:56:55.343Z,19072.00
2023-04-06T12:57:55.309Z,18976.00
2023-04-06T12:58:55.378Z,19008.00
2023-04-06T12:59:55.438Z,18912.00
2023-04-06T13:00:55.314Z,18976.00
2023-04-06T13:01:55.313Z,19040.00
2023-04-06T13:02:55.280Z,19328.00
2023-04-06T13:03:55.226Z,19328.00
2023-04-06T13:04:55.236Z,18944.00
2023-04-06T13:05:55.229Z,18720.00
2023-04-06T13:06:55.182Z,18528.00
2023-04-06T13:07:55.182Z,18240.00
2023-04-06T13:08:55.171Z,18016.00
2023-04-06T13:09:55.157Z,17760.00
2023-04-06T13:10:55.141Z,17344.00
2023-04-06T13:11:55.145Z,16896.00
2023-04-06T13:12:55.116Z,16608.00
2023-04-06T13:13:55.115Z,16416.00
2023-04-06T13:14:55.082Z,16256.00
2023-04-06T13:15:55.158Z,16128.00
2023-04-06T13:16:55.255Z,15904.00
2023-04-06T13:17:56.399Z,15716.00
2023-04-06T13:18:55.011Z,15544.00
2023-04-06T13:19:55.036Z,15364.00
2023-04-06T13:20:55.005Z,15140.00
2023-04-06T13:21:54.976Z,14932.00
2023-04-06T13:41:12.210Z,22112.00
2023-04-06T13:42:12.191Z,18240.00
2023-04-06T13:43:12.160Z,17600.00
2023-04-06T13:44:12.148Z,17920.00
2023-04-06T13:45:12.149Z,16608.00
2023-04-06T13:46:12.164Z,15980.00
2023-04-06T13:47:12.113Z,15516.00
